< < Back
Terminal Aerodrome Forecast


Current Version              Previous Versions:   1  2  3  4  5  6  7  8  9  

Terminal Aerodrome Forecast

143
FTUS42 KJAX 291700
TAFSSI
TAF
KSSI 291721Z 2918/3018 29006KT P6SM SKC
     FM292300 03005KT P6SM SKC
     FM301400 32006KT P6SM SKC=

Latest METAR

076
SAUS70 KWBC 300300 RRB
MTRSSI
METAR KSSI 300253Z AUTO 09005KT 10SM FEW085 28/22 A2994 RMK AO2 SLP137
T02780217 51012


USA.gov is the U.S. government's official web portal to all federal, state and local government web resources and services.